createdAt,value
2018-07-08T00:01:51.253Z,96507.67
2018-07-08T00:04:21.125Z,96504.17
2018-07-08T00:06:54.995Z,96503.72
2018-07-08T00:09:25.399Z,96506.62
2018-07-08T00:11:55.439Z,96509.52
2018-07-08T00:14:25.589Z,96503.59
2018-07-08T00:16:55.393Z,96500.05
2018-07-08T00:19:25.416Z,96507.42
2018-07-08T00:21:55.677Z,96504.32
2018-07-08T00:25:16.345Z,96501.66
2018-07-08T00:27:46.251Z,96502.94
2018-07-08T00:30:16.130Z,96501.28
2018-07-08T00:32:46.096Z,96499.84
2018-07-08T00:35:15.899Z,96501.42
2018-07-08T00:37:45.818Z,96501.22
2018-07-08T00:40:15.690Z,96510.69
2018-07-08T00:42:45.830Z,96510.78
2018-07-08T00:45:15.885Z,96508.95
2018-07-08T00:47:45.812Z,96504.44
2018-07-08T00:58:14.885Z,96513.03
2018-07-08T01:00:45.241Z,96510.84
2018-07-08T01:03:15.042Z,96502.72
2018-07-08T01:05:44.889Z,96509.11
2018-07-08T01:08:14.750Z,96505.02
2018-07-08T01:10:44.686Z,96511.02
2018-07-08T01:13:16.509Z,96515.80
2018-07-08T01:15:46.347Z,96514.44
2018-07-08T01:18:16.185Z,96513.18
2018-07-08T01:20:46.391Z,96510.91
2018-07-08T01:23:16.280Z,96509.39
2018-07-08T01:26:02.792Z,96507.07
2018-07-08T01:28:32.850Z,96509.53
2018-07-08T01:31:02.659Z,96507.62
2018-07-08T01:33:32.583Z,96509.73
2018-07-08T01:36:02.418Z,96505.70
2018-07-08T01:38:32.466Z,96498.62
2018-07-08T01:41:02.278Z,96498.98
2018-07-08T01:43:32.171Z,96497.42
2018-07-08T01:46:02.182Z,96497.38
2018-07-08T01:48:31.957Z,96493.70
2018-07-08T01:51:01.821Z,96487.30
2018-07-08T01:53:31.752Z,96485.48
2018-07-08T01:56:02.133Z,96487.41
2018-07-08T01:58:31.973Z,96492.63
2018-07-08T02:01:02.253Z,96487.06
2018-07-08T02:03:32.436Z,96488.54
2018-07-08T02:06:02.653Z,96487.59
2018-07-08T02:08:33.298Z,96483.09
2018-07-08T02:11:03.121Z,96481.73
2018-07-08T02:13:32.899Z,96485.14
2018-07-08T02:16:02.952Z,96479.23
2018-07-08T02:18:32.844Z,96482.14
2018-07-08T02:21:02.746Z,96476.62
2018-07-08T02:23:32.549Z,96472.08
2018-07-08T02:26:02.428Z,96479.25
2018-07-08T02:28:33.145Z,96472.49
2018-07-08T02:31:02.958Z,96469.23
2018-07-08T02:33:33.322Z,96469.09
2018-07-08T02:36:03.663Z,96464.55
2018-07-08T02:38:33.962Z,96465.73
2018-07-08T02:41:04.156Z,96460.72
2018-07-08T02:43:34.012Z,96459.64
2018-07-08T02:46:04.114Z,96460.60
2018-07-08T02:48:33.982Z,96458.20
2018-07-08T02:51:03.841Z,96458.78
2018-07-08T02:53:33.712Z,96462.97
2018-07-08T02:56:03.567Z,96466.34
2018-07-08T02:58:33.348Z,96465.13
2018-07-08T03:01:03.145Z,96464.73
2018-07-08T03:03:32.940Z,96466.03
2018-07-08T03:06:02.804Z,96462.08
2018-07-08T03:08:32.972Z,96471.59
2018-07-08T03:11:02.817Z,96474.52
2018-07-08T03:13:32.606Z,96472.90
2018-07-08T03:16:02.431Z,96475.78
2018-07-08T03:18:32.245Z,96475.36
2018-07-08T03:21:02.007Z,96468.77
2018-07-08T03:23:32.755Z,96465.69
2018-07-08T03:26:02.622Z,96469.38
2018-07-08T03:28:32.762Z,96477.94
2018-07-08T03:31:02.541Z,96470.40
2018-07-08T03:33:32.369Z,96473.67
2018-07-08T03:36:02.365Z,96471.19
2018-07-08T03:38:32.198Z,96470.99
2018-07-08T03:41:02.095Z,96470.99
2018-07-08T03:43:31.908Z,96471.23
2018-07-08T03:46:01.705Z,96469.10
2018-07-08T03:48:31.612Z,96474.66
2018-07-08T03:51:01.693Z,96472.61
2018-07-08T03:53:31.534Z,96474.16
2018-07-08T03:56:01.352Z,96480.92
2018-07-08T03:58:31.176Z,96478.54
2018-07-08T04:01:01.088Z,96472.67
2018-07-08T04:03:30.900Z,96474.28
2018-07-08T04:06:00.708Z,96472.05
2018-07-08T04:08:30.550Z,96475.97
2018-07-08T04:11:00.378Z,96473.06
2018-07-08T04:20:41.876Z,96478.49
2018-07-08T04:23:11.694Z,96478.84
2018-07-08T04:25:42.143Z,96476.50
2018-07-08T04:28:12.658Z,96479.28
2018-07-08T04:30:43.155Z,96487.52
2018-07-08T04:33:13.505Z,96491.86
2018-07-08T04:35:43.898Z,96483.59
2018-07-08T04:38:14.274Z,96492.88
2018-07-08T04:40:44.639Z,96489.26
2018-07-08T04:43:15.070Z,96495.53
2018-07-08T04:45:45.559Z,96497.24
2018-07-08T04:48:15.856Z,96503.18
2018-07-08T04:50:46.212Z,96504.63
2018-07-08T04:53:16.615Z,96505.30
2018-07-08T04:55:46.990Z,96505.63
2018-07-08T04:58:17.388Z,96506.27
2018-07-08T05:00:48.412Z,96504.95
2018-07-08T05:03:18.966Z,96513.07
2018-07-08T05:05:49.363Z,96518.33
2018-07-08T05:08:20.099Z,96520.72
2018-07-08T05:10:50.815Z,96517.34
2018-07-08T05:13:20.862Z,96523.14
2018-07-08T05:15:51.065Z,96531.53
2018-07-08T05:18:21.185Z,96536.00
2018-07-08T05:20:51.275Z,96534.81
2018-07-08T05:23:21.314Z,96531.30
2018-07-08T05:25:51.407Z,96525.37
2018-07-08T05:28:21.621Z,96526.14
2018-07-08T05:30:51.721Z,96528.17
2018-07-08T05:33:21.775Z,96526.06
2018-07-08T05:35:51.845Z,96522.15
2018-07-08T05:38:22.027Z,96525.78
2018-07-08T05:40:52.111Z,96529.69
2018-07-08T05:43:22.117Z,96526.97
2018-07-08T05:45:52.239Z,96525.87
2018-07-08T05:48:22.682Z,96530.89
2018-07-08T05:50:53.213Z,96533.67
2018-07-08T05:53:23.331Z,96534.11
2018-07-08T05:55:53.445Z,96534.19
2018-07-08T05:58:23.483Z,96532.56
2018-07-08T06:00:53.565Z,96527.14
2018-07-08T06:03:23.735Z,96537.10
2018-07-08T06:05:53.845Z,96530.32
2018-07-08T06:08:24.223Z,96530.88
2018-07-08T06:10:54.801Z,96525.52
2018-07-08T06:13:25.207Z,96529.44
2018-07-08T06:15:55.689Z,96527.25
2018-07-08T06:18:26.103Z,96529.24
2018-07-08T06:20:56.573Z,96530.88
2018-07-08T06:23:27.311Z,96528.34
2018-07-08T06:25:57.766Z,96537.70
2018-07-08T06:28:28.336Z,96540.47
2018-07-08T06:30:58.765Z,96534.63
2018-07-08T06:33:29.560Z,96533.97
2018-07-08T06:35:59.923Z,96530.91
2018-07-08T06:38:30.253Z,96529.60
2018-07-08T06:41:00.999Z,96524.78
2018-07-08T06:43:31.397Z,96525.91
2018-07-08T06:46:02.054Z,96532.33
2018-07-08T06:48:32.581Z,96525.55
2018-07-08T06:51:02.947Z,96530.22
2018-07-08T06:53:33.296Z,96533.88
2018-07-08T06:56:03.675Z,96537.69
2018-07-08T06:58:34.029Z,96533.00
2018-07-08T07:01:04.347Z,96532.23
2018-07-08T07:03:34.648Z,96534.30
2018-07-08T07:06:05.302Z,96532.20
2018-07-08T07:08:35.625Z,96531.05
2018-07-08T07:11:05.623Z,96529.19
2018-07-08T07:13:36.333Z,96525.95
2018-07-08T07:16:07.281Z,96526.53
2018-07-08T07:18:37.617Z,96525.92
2018-07-08T07:21:08.077Z,96530.88
2018-07-08T07:23:38.405Z,96525.53
2018-07-08T07:26:08.715Z,96527.63
2018-07-08T07:28:39.481Z,96523.77
2018-07-08T07:31:10.551Z,96523.56
2018-07-08T07:33:40.972Z,96521.38
2018-07-08T07:36:11.421Z,96522.50
2018-07-08T07:38:42.055Z,96526.19
2018-07-08T07:41:12.524Z,96531.17
2018-07-08T07:43:43.048Z,96522.92
2018-07-08T07:46:13.588Z,96519.42
2018-07-08T07:48:44.094Z,96521.77
2018-07-08T07:51:14.690Z,96524.35
2018-07-08T07:53:45.668Z,96520.17
2018-07-08T07:56:16.090Z,96518.47
2018-07-08T07:58:46.550Z,96526.20
2018-07-08T08:01:17.314Z,96517.61
2018-07-08T08:03:47.718Z,96516.56
2018-07-08T08:06:18.154Z,96513.95
2018-07-08T08:08:48.623Z,96514.45
2018-07-08T08:12:15.665Z,96511.48
2018-07-08T08:14:46.143Z,96512.16
2018-07-08T08:17:17.230Z,96504.05
2018-07-08T08:19:47.616Z,96515.53
2018-07-08T08:22:18.284Z,96506.42
2018-07-08T08:24:49.148Z,96504.19
2018-07-08T08:27:19.624Z,96503.65
2018-07-08T08:29:50.094Z,96500.45
2018-07-08T08:32:20.834Z,96503.25
2018-07-08T08:34:56.850Z,96505.91
2018-07-08T08:37:29.400Z,96500.13
2018-07-08T08:39:59.880Z,96501.96
2018-07-08T08:42:30.360Z,96496.41
2018-07-08T08:45:01.182Z,96502.95
2018-07-08T08:47:32.486Z,96500.91
2018-07-08T08:50:03.166Z,96511.08
2018-07-08T08:52:33.649Z,96505.84
2018-07-08T08:55:04.483Z,96512.90
2018-07-08T08:57:34.962Z,96504.00
2018-07-08T09:00:12.609Z,96502.78
2018-07-08T09:03:17.608Z,96504.44
2018-07-08T09:05:48.050Z,96500.75
2018-07-08T09:08:18.515Z,96503.12
2018-07-08T09:10:48.984Z,96502.86
2018-07-08T09:13:28.723Z,96502.14
2018-07-08T09:15:59.788Z,96503.30
2018-07-08T09:18:30.199Z,96496.34
2018-07-08T09:21:00.631Z,96502.20
2018-07-08T09:23:31.090Z,96499.55
2018-07-08T09:26:01.496Z,96492.28
2018-07-08T09:28:32.000Z,96494.64
2018-07-08T09:31:02.416Z,96494.30
2018-07-08T09:33:32.880Z,96497.75
2018-07-08T09:36:03.304Z,96497.56
2018-07-08T09:38:33.748Z,96500.89
2018-07-08T09:41:04.498Z,96491.27
2018-07-08T09:43:35.004Z,96494.36
2018-07-08T09:46:05.515Z,96493.58
2018-07-08T09:48:36.148Z,96484.86
2018-07-08T09:51:06.630Z,96482.59
2018-07-08T09:53:37.694Z,96483.59
2018-07-08T09:56:08.158Z,96480.41
2018-07-08T09:58:38.730Z,96483.96
2018-07-08T10:01:09.190Z,96483.83
2018-07-08T10:03:39.622Z,96481.98
2018-07-08T10:06:10.463Z,96481.24
2018-07-08T10:08:40.931Z,96479.89
2018-07-08T10:11:11.578Z,96483.11
2018-07-08T10:13:42.125Z,96482.02
2018-07-08T10:16:12.821Z,96476.03
2018-07-08T10:18:43.502Z,96478.24
2018-07-08T10:21:14.181Z,96476.98
2018-07-08T10:23:44.685Z,96476.30
2018-07-08T10:26:15.082Z,96470.92
2018-07-08T10:28:45.530Z,96462.58
2018-07-08T10:31:15.925Z,96470.35
2018-07-08T10:33:58.089Z,96465.88
2018-07-08T10:36:28.709Z,96475.30
2018-07-08T10:38:59.295Z,96472.50
2018-07-08T10:41:29.712Z,96471.48
2018-07-08T10:44:00.171Z,96465.50
2018-07-08T10:46:30.670Z,96468.04
2018-07-08T10:49:01.290Z,96461.59
2018-07-08T10:51:31.765Z,96461.03
2018-07-08T10:54:02.635Z,96456.57
2018-07-08T10:56:33.091Z,96451.03
2018-07-08T10:59:04.259Z,96460.05
2018-07-08T11:01:34.697Z,96454.08
2018-07-08T11:04:05.345Z,96453.34
2018-07-08T11:06:35.790Z,96454.88
2018-07-08T11:09:07.735Z,96456.77
2018-07-08T11:11:38.294Z,96453.62
2018-07-08T11:14:08.706Z,96448.30
2018-07-08T11:16:39.069Z,96453.02
2018-07-08T11:19:09.543Z,96454.03
2018-07-08T11:21:39.946Z,96450.30
2018-07-08T11:31:22.220Z,96449.47
2018-07-08T11:33:52.666Z,96443.20
2018-07-08T11:36:23.402Z,96445.92
2018-07-08T11:38:54.060Z,96450.95
2018-07-08T11:41:25.112Z,96443.25
2018-07-08T11:43:55.645Z,96437.32
2018-07-08T11:46:26.425Z,96434.94
2018-07-08T11:48:56.777Z,96436.98
2018-07-08T11:51:26.877Z,96433.06
2018-07-08T11:53:57.033Z,96433.59
2018-07-08T11:56:27.285Z,96427.62
2018-07-08T11:58:57.453Z,96427.95
2018-07-08T12:01:28.677Z,96425.95
2018-07-08T12:03:59.526Z,96435.81
2018-07-08T12:06:30.006Z,96424.91
2018-07-08T12:09:00.810Z,96423.17
2018-07-08T12:11:30.886Z,96421.88
2018-07-08T12:14:01.335Z,96418.50
2018-07-08T12:16:31.841Z,96418.27
2018-07-08T12:19:01.957Z,96424.81
2018-07-08T12:21:32.857Z,96423.34
2018-07-08T12:24:03.317Z,96423.30
2018-07-08T12:26:33.853Z,96421.06
2018-07-08T12:29:04.325Z,96415.45
2018-07-08T12:31:34.797Z,96419.65
2018-07-08T12:34:05.287Z,96417.63
2018-07-08T12:36:35.963Z,96421.05
2018-07-08T12:39:10.821Z,96419.86
2018-07-08T12:41:41.378Z,96426.25
2018-07-08T12:44:11.792Z,96422.70
2018-07-08T12:46:42.325Z,96420.23
2018-07-08T12:49:12.386Z,96420.97
2018-07-08T12:51:42.827Z,96415.31
2018-07-08T12:54:13.531Z,96417.84
2018-07-08T12:56:43.975Z,96411.03
2018-07-08T12:59:14.421Z,96422.52
2018-07-08T13:01:44.839Z,96415.05
2018-07-08T13:04:15.267Z,96419.75
2018-07-08T13:06:46.314Z,96413.97
2018-07-08T13:09:17.935Z,96412.58
2018-07-08T13:11:48.653Z,96408.50
2018-07-08T13:14:19.038Z,96410.41
2018-07-08T13:16:49.568Z,96412.91
2018-07-08T13:19:19.627Z,96407.41
2018-07-08T13:21:49.733Z,96406.67
2018-07-08T13:24:19.876Z,96401.26
2018-07-08T13:26:50.019Z,96406.97
2018-07-08T13:29:20.093Z,96403.48
2018-07-08T13:31:50.165Z,96402.25
2018-07-08T13:34:20.893Z,96404.06
2018-07-08T13:36:50.991Z,96402.17
2018-07-08T13:39:21.157Z,96389.70
2018-07-08T13:41:51.629Z,96395.56
2018-07-08T13:44:22.033Z,96392.63
2018-07-08T13:46:52.501Z,96397.88
2018-07-08T13:49:23.395Z,96393.66
2018-07-08T13:51:53.855Z,96397.08
2018-07-08T13:54:24.474Z,96389.52
2018-07-08T13:56:55.039Z,96390.81
2018-07-08T13:59:25.447Z,96389.67
2018-07-08T14:01:56.311Z,96384.62
2018-07-08T14:04:26.815Z,96396.12
2018-07-08T14:06:57.328Z,96385.81
2018-07-08T14:09:27.799Z,96381.77
2018-07-08T14:11:58.613Z,96384.36
2018-07-08T14:14:29.251Z,96386.55
2018-07-08T14:16:59.876Z,96383.90
2018-07-08T14:19:30.262Z,96385.55
2018-07-08T14:22:01.162Z,96393.72
2018-07-08T14:24:31.749Z,96379.19
2018-07-08T14:27:02.256Z,96377.67
2018-07-08T14:29:33.218Z,96385.56
2018-07-08T14:32:04.175Z,96376.34
2018-07-08T14:34:34.706Z,96376.06
2018-07-08T14:37:05.214Z,96379.94
2018-07-08T14:39:35.858Z,96380.73
2018-07-08T14:42:06.490Z,96381.42
2018-07-08T14:44:37.016Z,96375.17
2018-07-08T14:47:07.580Z,96383.39
2018-07-08T14:49:38.052Z,96385.72
2018-07-08T14:52:08.992Z,96383.31
2018-07-08T14:54:39.564Z,96386.42
2018-07-08T14:57:10.192Z,96383.05
2018-07-08T14:59:40.578Z,96384.50
2018-07-08T15:02:10.998Z,96378.78
2018-07-08T15:04:41.453Z,96380.25
2018-07-08T15:07:12.292Z,96382.89
2018-07-08T15:09:42.721Z,96377.31
2018-07-08T15:12:13.465Z,96375.67
2018-07-08T15:14:44.254Z,96375.45
2018-07-08T15:17:14.680Z,96374.95
2018-07-08T15:19:45.405Z,96374.48
2018-07-08T15:22:15.828Z,96379.14
2018-07-08T15:24:46.308Z,96378.34
2018-07-08T15:27:17.102Z,96373.17
2018-07-08T15:29:47.537Z,96379.89
2018-07-08T15:32:18.401Z,96368.05
2018-07-08T15:34:48.795Z,96368.98
2018-07-08T15:37:19.387Z,96371.70
2018-07-08T15:39:49.842Z,96374.11
2018-07-08T15:42:20.276Z,96376.39
2018-07-08T15:44:51.324Z,96373.17
2018-07-08T15:47:22.612Z,96376.59
2018-07-08T15:49:53.412Z,96377.45
2018-07-08T15:52:23.986Z,96365.98
2018-07-08T15:54:54.850Z,96369.45
2018-07-08T15:57:25.338Z,96365.74
2018-07-08T15:59:56.125Z,96363.77
2018-07-08T16:02:26.509Z,96358.36
2018-07-08T16:04:57.220Z,96359.30
2018-07-08T16:07:29.373Z,96347.53
2018-07-08T16:09:59.942Z,96358.46
2018-07-08T16:12:33.328Z,96357.44
2018-07-08T16:15:04.025Z,96354.12
2018-07-08T16:17:34.692Z,96353.45
2018-07-08T16:20:05.879Z,96353.57
2018-07-08T16:22:36.268Z,96351.62
2018-07-08T16:25:07.149Z,96358.05
2018-07-08T16:27:38.283Z,96353.52
2018-07-08T16:30:08.768Z,96360.45
2018-07-08T16:32:39.477Z,96348.45
2018-07-08T16:35:09.874Z,96351.75
2018-07-08T16:37:40.614Z,96346.25
2018-07-08T16:40:14.274Z,96342.97
2018-07-08T16:42:45.679Z,96351.89
2018-07-08T16:45:16.086Z,96347.53
2018-07-08T16:47:46.943Z,96356.42
2018-07-08T16:50:17.523Z,96358.78
2018-07-08T16:52:50.618Z,96361.38
2018-07-08T16:56:14.554Z,96357.37
2018-07-08T16:58:45.824Z,96356.81
2018-07-08T17:01:16.158Z,96360.09
2018-07-08T17:03:47.801Z,96357.59
2018-07-08T17:06:17.980Z,96356.66
2018-07-08T17:08:48.725Z,96358.06
2018-07-08T17:11:19.200Z,96356.67
2018-07-08T17:13:49.991Z,96362.81
2018-07-08T17:16:20.425Z,96364.03
2018-07-08T17:18:51.309Z,96362.48
2018-07-08T17:21:21.725Z,96364.70
2018-07-08T17:23:52.161Z,96366.33
2018-07-08T17:26:22.669Z,96367.02
2018-07-08T17:28:53.665Z,96366.53
2018-07-08T17:31:24.690Z,96365.13
2018-07-08T17:33:55.165Z,96365.56
2018-07-08T17:36:26.009Z,96366.20
2018-07-08T17:38:56.446Z,96361.09
2018-07-08T17:41:26.885Z,96362.22
2018-07-08T17:43:57.795Z,96362.96
2018-07-08T17:46:28.320Z,96356.59
2018-07-08T17:48:59.246Z,96365.72
2018-07-08T17:51:29.671Z,96365.02
2018-07-08T17:54:00.495Z,96361.80
2018-07-08T17:56:31.199Z,96365.56
2018-07-08T17:59:01.583Z,96361.98
2018-07-08T18:01:32.032Z,96360.13
2018-07-08T18:04:03.610Z,96364.72
2018-07-08T18:06:34.049Z,96366.42
2018-07-08T18:09:05.784Z,96359.90
2018-07-08T18:11:36.799Z,96359.34
2018-07-08T18:14:07.436Z,96359.94
2018-07-08T18:16:38.024Z,96359.84
2018-07-08T18:19:08.537Z,96362.55
2018-07-08T18:21:39.064Z,96363.47
2018-07-08T18:24:09.635Z,96368.38
2018-07-08T18:26:40.098Z,96366.03
2018-07-08T18:29:10.737Z,96365.09
2018-07-08T18:31:41.551Z,96367.02
2018-07-08T18:34:12.019Z,96372.69
2018-07-08T18:36:42.561Z,96370.88
2018-07-08T18:39:13.088Z,96376.12
2018-07-08T18:42:18.335Z,96371.09
2018-07-08T18:44:48.845Z,96379.25
2018-07-08T18:47:19.250Z,96382.18
2018-07-08T18:49:49.694Z,96379.81
2018-07-08T18:52:20.134Z,96375.09
2018-07-08T18:58:26.901Z,96373.38
2018-07-08T19:00:57.445Z,96372.19
2018-07-08T19:03:27.936Z,96380.78
2018-07-08T19:05:58.348Z,96382.30
2018-07-08T19:08:28.742Z,96384.81
2018-07-08T19:11:00.042Z,96385.63
2018-07-08T19:13:31.102Z,96395.86
2018-07-08T19:16:01.580Z,96391.09
2018-07-08T19:18:32.013Z,96393.57
2018-07-08T19:21:02.428Z,96398.52
2018-07-08T19:23:33.015Z,96395.40
2018-07-08T19:26:03.455Z,96406.38
2018-07-08T19:28:34.171Z,96405.30
2018-07-08T19:31:04.655Z,96409.91
2018-07-08T19:33:35.071Z,96406.52
2018-07-08T19:36:06.372Z,96413.00
2018-07-08T19:38:36.818Z,96414.67
2018-07-08T19:41:07.331Z,96411.89
2018-07-08T19:43:37.826Z,96417.72
2018-07-08T19:46:08.423Z,96417.55
2018-07-08T19:49:16.535Z,96425.11
2018-07-08T19:51:46.947Z,96425.68
2018-07-08T19:54:17.419Z,96430.58
2018-07-08T19:56:48.069Z,96431.19
2018-07-08T19:59:18.521Z,96435.83
2018-07-08T20:01:48.952Z,96440.89
2018-07-08T20:04:19.451Z,96436.55
2018-07-08T20:06:49.952Z,96439.46
2018-07-08T20:09:20.363Z,96436.06
2018-07-08T20:11:51.281Z,96439.28
2018-07-08T20:14:21.695Z,96438.67
2018-07-08T20:16:52.133Z,96442.81
2018-07-08T20:19:22.523Z,96439.56
2018-07-08T20:21:52.972Z,96446.50
2018-07-08T20:24:23.613Z,96445.54
2018-07-08T20:26:54.385Z,96443.25
2018-07-08T20:29:24.795Z,96452.36
2018-07-08T20:31:55.407Z,96454.34
2018-07-08T20:34:25.841Z,96453.77
2018-07-08T20:36:56.357Z,96458.71
2018-07-08T20:39:27.627Z,96456.06
2018-07-08T20:41:58.395Z,96460.34
2018-07-08T20:44:28.801Z,96452.88
2018-07-08T20:46:59.557Z,96459.48
2018-07-08T20:49:30.133Z,96456.98
2018-07-08T20:52:00.629Z,96470.08
2018-07-08T20:54:31.367Z,96469.20
2018-07-08T20:57:01.870Z,96467.81
2018-07-08T20:59:32.316Z,96469.95
2018-07-08T21:06:16.859Z,96473.67
2018-07-08T21:08:47.343Z,96466.35
2018-07-08T21:11:18.137Z,96467.02
2018-07-08T21:13:48.695Z,96470.52
2018-07-08T21:16:19.289Z,96466.63
2018-07-08T21:18:49.787Z,96464.80
2018-07-08T21:21:20.975Z,96468.01
2018-07-08T21:23:52.811Z,96466.59
2018-07-08T21:26:23.283Z,96459.23
2018-07-08T21:32:29.779Z,96458.94
2018-07-08T21:35:00.307Z,96460.94
2018-07-08T21:37:30.999Z,96467.20
2018-07-08T21:40:01.435Z,96459.95
2018-07-08T21:42:33.349Z,96464.43
2018-07-08T21:48:40.985Z,96458.31
2018-07-08T21:51:11.504Z,96460.34
2018-07-08T21:53:42.030Z,96461.91
2018-07-08T21:56:12.500Z,96459.17
2018-07-08T21:58:43.275Z,96468.89
2018-07-08T22:01:16.842Z,96466.23
2018-07-08T22:03:48.039Z,96460.47
2018-07-08T22:06:19.422Z,96462.27
2018-07-08T22:08:49.812Z,96465.72
2018-07-08T22:11:20.225Z,96463.30
2018-07-08T22:13:50.890Z,96461.08
2018-07-08T22:16:21.328Z,96456.28
2018-07-08T22:18:51.716Z,96457.83
2018-07-08T22:21:27.124Z,96458.89
2018-07-08T22:23:57.594Z,96457.00
2018-07-08T22:26:28.031Z,96458.39
2018-07-08T22:28:59.131Z,96460.32
2018-07-08T22:31:29.903Z,96459.54
2018-07-08T22:34:00.387Z,96460.32
2018-07-08T22:36:30.940Z,96461.66
2018-07-08T22:39:01.342Z,96461.42
2018-07-08T22:41:32.062Z,96458.88
2018-07-08T22:44:02.874Z,96464.70
2018-07-08T22:46:33.316Z,96462.72
2018-07-08T22:49:04.091Z,96460.67
2018-07-08T22:51:34.569Z,96463.31
2018-07-08T22:54:05.019Z,96462.42
2018-07-08T22:56:35.409Z,96454.40
2018-07-08T22:59:05.837Z,96456.29
2018-07-08T23:01:52.887Z,96459.09
2018-07-08T23:04:23.343Z,96459.03
2018-07-08T23:06:54.139Z,96462.41
2018-07-08T23:09:24.597Z,96460.90
2018-07-08T23:11:54.988Z,96460.42
2018-07-08T23:14:26.667Z,96459.67
2018-07-08T23:16:57.833Z,96457.55
2018-07-08T23:19:28.285Z,96453.69
2018-07-08T23:21:58.988Z,96454.80
2018-07-08T23:24:29.854Z,96449.77
2018-07-08T23:27:00.305Z,96452.54
2018-07-08T23:29:31.038Z,96462.55
2018-07-08T23:32:02.747Z,96458.22
2018-07-08T23:34:34.556Z,96455.30
2018-07-08T23:37:05.463Z,96454.88
2018-07-08T23:39:36.059Z,96454.37
2018-07-08T23:42:06.463Z,96451.27
2018-07-08T23:44:37.114Z,96450.91
2018-07-08T23:47:08.352Z,96452.45
2018-07-08T23:49:38.797Z,96448.51
2018-07-08T23:52:09.561Z,96451.73
2018-07-08T23:54:40.320Z,96449.35
2018-07-08T23:57:11.167Z,96446.45
2018-07-08T23:59:42.308Z,96442.41
